Time;durP1;ratioP1;P1;durP2;ratioP2;P2;SDS_P1;SDS_P2;PMS_P1;PMS_P2;Temp;Humidity;BMP_temperature;BMP_pressure;BME280_temperature;BME280_humidity;BME280_pressure;Samples;Min_cycle;Max_cycle;Signal;HPM_P1;HPM_P2
2022/05/24 00:00:39;;;;;;;2.20;1.53;;;17.20;99.90;;;;;;5068726;28;20470;-65
2022/05/24 00:03:06;;;;;;;3.10;2.00;;;17.10;99.90;;;;;;5069583;28;21035;-65
2022/05/24 00:05:35;;;;;;;3.93;1.83;;;16.90;99.90;;;;;;5069691;28;20455;-65
2022/05/24 00:08:03;;;;;;;2.90;1.97;;;16.80;99.90;;;;;;5069327;28;20435;-64
2022/05/24 00:10:32;;;;;;;4.37;1.83;;;16.60;99.90;;;;;;5069177;28;20455;-65
2022/05/24 00:13:00;;;;;;;3.33;2.17;;;16.60;99.90;;;;;;5070392;28;20443;-65
2022/05/24 00:15:30;;;;;;;2.80;2.23;;;16.50;99.90;;;;;;5073494;28;20475;-65
2022/05/24 00:17:59;;;;;;;2.40;1.70;;;16.50;99.90;;;;;;5073395;28;20453;-65
2022/05/24 00:20:29;;;;;;;2.60;1.80;;;16.40;99.90;;;;;;5073173;28;20873;-66
2022/05/24 00:22:56;;;;;;;3.13;1.83;;;16.40;99.90;;;;;;5073293;28;20453;-65
2022/05/24 00:25:24;;;;;;;2.40;1.80;;;16.40;99.90;;;;;;5073494;28;20431;-65
2022/05/24 00:27:51;;;;;;;2.50;2.07;;;16.40;99.90;;;;;;5073143;28;20800;-63
2022/05/24 00:30:19;;;;;;;2.70;1.80;;;16.40;99.90;;;;;;5073217;28;20463;-64
2022/05/24 00:32:46;;;;;;;2.70;1.77;;;16.30;99.90;;;;;;5073366;28;20443;-64
2022/05/24 00:35:14;;;;;;;2.70;2.13;;;16.20;99.90;;;;;;5073340;28;20500;-65
2022/05/24 00:37:43;;;;;;;3.43;2.20;;;16.10;99.90;;;;;;5073284;28;20518;-65
2022/05/24 00:40:14;;;;;;;3.20;2.60;;;16.00;99.90;;;;;;5072488;28;20463;-65
2022/05/24 00:42:44;;;;;;;3.20;2.50;;;15.90;99.90;;;;;;5073413;28;20573;-65
2022/05/24 00:45:24;;;;;;;2.90;2.50;;;15.80;99.90;;;;;;5072790;28;20435;-65
2022/05/24 00:47:54;;;;;;;3.30;2.47;;;15.70;99.90;;;;;;5073128;28;20462;-65
2022/05/24 00:50:26;;;;;;;4.10;2.70;;;15.70;99.90;;;;;;5072296;28;20465;-66
2022/05/24 00:52:58;;;;;;;3.10;2.70;;;15.70;99.90;;;;;;5073142;28;20443;-65
2022/05/24 00:55:26;;;;;;;4.40;2.97;;;15.70;99.90;;;;;;5072970;28;20439;-65
2022/05/24 00:58:08;;;;;;;5.10;3.20;;;15.70;99.90;;;;;;5072709;28;20439;-65
2022/05/24 01:00:35;;;;;;;3.80;2.90;;;15.60;99.90;;;;;;5072229;28;20478;-64
2022/05/24 01:03:02;;;;;;;4.33;2.90;;;15.60;99.90;;;;;;5072502;28;20525;-66
2022/05/24 01:05:32;;;;;;;4.60;3.37;;;15.70;99.90;;;;;;5072580;28;20481;-66
2022/05/24 01:07:59;;;;;;;5.10;3.07;;;15.60;99.90;;;;;;5072677;28;20439;-66
2022/05/24 01:10:30;;;;;;;4.17;3.70;;;15.70;99.90;;;;;;5072195;28;20977;-66
2022/05/24 01:13:02;;;;;;;3.53;3.23;;;15.80;99.90;;;;;;5072606;28;20451;-66
2022/05/24 01:15:29;;;;;;;5.93;3.67;;;15.70;99.90;;;;;;5072204;28;20820;-65
2022/05/24 01:17:58;;;;;;;4.40;3.80;;;15.70;99.90;;;;;;5072759;28;20813;-65
2022/05/24 01:20:25;;;;;;;5.10;4.50;;;15.70;99.90;;;;;;5072235;28;20469;-65
2022/05/24 01:23:20;;;;;;;4.60;3.43;;;15.70;99.90;;;;;;5072602;28;20443;-65
2022/05/24 01:25:56;;;;;;;4.70;4.20;;;15.70;99.90;;;;;;5072368;28;20427;-67
2022/05/24 01:28:35;;;;;;;5.67;4.17;;;15.70;99.90;;;;;;5072391;28;20439;-65
2022/05/24 01:31:04;;;;;;;5.03;3.93;;;15.70;99.90;;;;;;5072026;28;20439;-66
2022/05/24 01:36:15;;;;;;;4.80;3.70;;;16.00;99.90;;;;;;5072613;28;21205;-65
2022/05/24 01:38:47;;;;;;;3.93;3.63;;;16.00;99.90;;;;;;5072864;28;20439;-66
2022/05/24 01:41:18;;;;;;;7.57;4.37;;;15.70;99.90;;;;;;5071843;28;20439;-65
2022/05/24 01:43:49;;;;;;;6.20;4.43;;;15.60;99.90;;;;;;5071924;28;20457;-66
2022/05/24 01:46:20;;;;;;;5.03;4.40;;;15.70;99.90;;;;;;5071980;28;20441;-65
2022/05/24 01:48:50;;;;;;;5.23;3.97;;;15.60;99.90;;;;;;5071587;28;20564;-66
2022/05/24 01:51:22;;;;;;;5.17;4.50;;;15.50;99.90;;;;;;5071993;28;20452;-65
2022/05/24 01:53:54;;;;;;;4.20;3.80;;;15.50;99.90;;;;;;5072236;28;20451;-66
2022/05/24 01:56:26;;;;;;;4.63;3.60;;;15.60;99.90;;;;;;5071603;28;20475;-65
2022/05/24 01:58:58;;;;;;;4.40;3.97;;;15.70;99.90;;;;;;5071557;28;20444;-65
2022/05/24 02:01:35;;;;;;;6.00;5.17;;;15.70;99.90;;;;;;5070998;28;20473;-65
2022/05/24 02:04:02;;;;;;;5.07;4.40;;;15.70;99.90;;;;;;5071336;28;20434;-65
2022/05/24 02:06:30;;;;;;;7.73;5.33;;;15.70;99.90;;;;;;5071526;28;20443;-65
2022/05/24 02:08:57;;;;;;;7.27;5.30;;;15.60;99.90;;;;;;5071270;28;20509;-66
2022/05/24 02:11:26;;;;;;;6.97;5.10;;;15.60;99.90;;;;;;5071034;28;20933;-66
2022/05/24 02:13:59;;;;;;;4.93;4.43;;;15.50;99.90;;;;;;5071177;28;20467;-66
2022/05/24 02:16:29;;;;;;;5.03;4.50;;;15.40;99.90;;;;;;5071369;28;20500;-66
2022/05/24 02:18:56;;;;;;;5.10;4.60;;;15.30;99.90;;;;;;5071076;28;20463;-65
2022/05/24 02:21:23;;;;;;;5.43;4.90;;;15.20;99.90;;;;;;5070788;28;20439;-65
2022/05/24 02:23:52;;;;;;;5.17;4.67;;;15.20;99.90;;;;;;5071115;28;20861;-65
2022/05/24 02:26:21;;;;;;;6.03;5.27;;;15.20;99.90;;;;;;5070737;28;20467;-65
2022/05/24 02:28:51;;;;;;;5.10;4.70;;;15.10;99.90;;;;;;5071089;28;20442;-65
2022/05/24 02:31:21;;;;;;;6.30;4.40;;;15.10;99.90;;;;;;5070532;28;20435;-65
2022/05/24 02:33:48;;;;;;;7.43;6.13;;;15.10;99.90;;;;;;5070870;28;20951;-65
2022/05/24 02:36:16;;;;;;;5.80;5.20;;;15.00;99.90;;;;;;5069960;28;20991;-65
2022/05/24 02:38:43;;;;;;;5.30;4.80;;;15.00;99.90;;;;;;5070646;28;20501;-65
2022/05/24 02:43:54;;;;;;;9.13;5.47;;;15.00;99.90;;;;;;5070769;28;20418;-65
2022/05/24 02:46:22;;;;;;;7.23;4.87;;;14.90;99.90;;;;;;5070580;28;20431;-65
2022/05/24 02:48:49;;;;;;;6.47;5.87;;;15.00;99.90;;;;;;5070474;28;20447;-66
2022/05/24 02:51:17;;;;;;;6.77;6.13;;;15.00;99.90;;;;;;5069929;28;20512;-65
2022/05/24 02:53:45;;;;;;;8.03;6.10;;;15.00;99.90;;;;;;5070829;28;20862;-65
2022/05/24 02:56:13;;;;;;;6.03;5.43;;;14.90;99.90;;;;;;5070486;28;20478;-65
2022/05/24 02:58:40;;;;;;;6.27;5.67;;;15.00;99.90;;;;;;5070555;28;20440;-65
2022/05/24 03:01:13;;;;;;;6.70;5.97;;;15.00;99.90;;;;;;5069964;28;20443;-65
2022/05/24 03:03:41;;;;;;;6.70;5.90;;;15.00;99.90;;;;;;5070238;28;20474;-65
2022/05/24 03:06:08;;;;;;;7.10;6.50;;;15.00;99.90;;;;;;5070374;28;20805;-65
2022/05/24 03:14:15;;;;;;;7.13;6.43;;;15.10;99.90;;;;;;5007350;28;20429;-66
2022/05/24 03:16:46;;;;;;;7.87;7.00;;;15.20;99.90;;;;;;5041843;28;20481;-64
2022/05/24 03:19:14;;;;;;;7.60;6.77;;;15.10;99.90;;;;;;5070412;28;20827;-65
2022/05/24 03:21:41;;;;;;;8.10;6.27;;;15.20;99.90;;;;;;5070135;28;20458;-65
2022/05/24 03:24:09;;;;;;;8.07;7.27;;;15.00;99.90;;;;;;5070030;28;20427;-65
2022/05/24 03:26:36;;;;;;;6.80;6.10;;;15.00;99.90;;;;;;5070065;28;20951;-65
2022/05/24 03:29:03;;;;;;;7.17;5.90;;;15.10;99.90;;;;;;5069791;28;20467;-65
2022/05/24 03:31:31;;;;;;;7.60;6.90;;;15.10;99.90;;;;;;5069912;28;20441;-66
2022/05/24 03:33:58;;;;;;;6.53;5.83;;;15.10;99.90;;;;;;5069966;28;20470;-66
2022/05/24 03:36:26;;;;;;;6.97;6.37;;;15.10;99.90;;;;;;5069841;28;20467;-65
2022/05/24 03:38:53;;;;;;;6.30;5.27;;;15.20;99.90;;;;;;5069747;28;20449;-65
2022/05/24 03:41:20;;;;;;;7.20;6.10;;;15.10;99.90;;;;;;5069440;28;20435;-65
2022/05/24 03:43:46;;;;;;;12.23;6.30;;;15.20;99.90;;;;;;5070058;28;20431;-65
2022/05/24 03:46:13;;;;;;;9.77;7.47;;;15.20;99.90;;;;;;5070472;28;20446;-65
2022/05/24 03:48:40;;;;;;;6.83;6.00;;;15.20;99.90;;;;;;5069335;28;20435;-65
2022/05/24 03:51:07;;;;;;;7.17;6.47;;;15.20;99.90;;;;;;5069357;28;20454;-63
2022/05/24 03:53:36;;;;;;;6.27;5.77;;;15.30;99.90;;;;;;5069699;28;20443;-65
2022/05/24 03:56:03;;;;;;;7.23;6.53;;;15.30;99.90;;;;;;5068715;28;20842;-65
2022/05/24 03:58:31;;;;;;;10.37;6.50;;;15.30;99.90;;;;;;5069732;28;20435;-65
2022/05/24 04:00:58;;;;;;;8.00;6.67;;;15.30;99.90;;;;;;5068494;28;20463;-65
2022/05/24 04:03:25;;;;;;;6.83;6.13;;;15.30;99.90;;;;;;5069514;28;20443;-65
2022/05/24 04:05:52;;;;;;;7.00;5.90;;;15.20;99.90;;;;;;5068569;28;20443;-64
2022/05/24 04:08:24;;;;;;;5.70;5.10;;;15.30;99.90;;;;;;5069555;28;20443;-66
2022/05/24 04:10:59;;;;;;;6.47;5.87;;;15.40;99.90;;;;;;5068785;28;20554;-64
2022/05/24 04:13:28;;;;;;;6.10;5.47;;;15.40;99.90;;;;;;5069290;28;20445;-65
2022/05/24 04:15:55;;;;;;;6.33;5.83;;;15.50;99.90;;;;;;5069330;28;20470;-64
2022/05/24 04:18:22;;;;;;;6.40;5.60;;;15.50;99.90;;;;;;5069382;28;20914;-65
2022/05/24 04:20:49;;;;;;;7.63;5.80;;;15.50;99.90;;;;;;5068860;28;20520;-66
2022/05/24 04:23:19;;;;;;;8.97;6.60;;;15.60;99.90;;;;;;5069435;28;20443;-65
2022/05/24 04:25:46;;;;;;;6.00;5.50;;;15.50;99.90;;;;;;5069573;28;20538;-64
2022/05/24 04:28:18;;;;;;;7.40;6.57;;;15.50;99.90;;;;;;5069403;28;20431;-64
2022/05/24 04:30:45;;;;;;;6.43;5.73;;;15.40;99.90;;;;;;5068916;28;20466;-65
2022/05/24 04:33:12;;;;;;;6.63;6.10;;;15.50;99.90;;;;;;5069055;28;20435;-65
2022/05/24 04:35:39;;;;;;;6.50;5.90;;;15.60;99.90;;;;;;5066317;28;20459;-65
2022/05/24 04:38:06;;;;;;;6.63;6.03;;;15.60;99.90;;;;;;5067426;28;20475;-65
2022/05/24 04:43:19;;;;;;;7.73;6.97;;;15.90;99.90;;;;;;5068938;28;20514;-65
2022/05/24 04:45:46;;;;;;;6.53;5.93;;;15.90;99.90;;;;;;5069272;28;20442;-65
2022/05/24 04:48:13;;;;;;;7.23;6.53;;;16.00;99.90;;;;;;5068968;28;20427;-65
2022/05/24 04:50:39;;;;;;;8.50;6.63;;;16.00;99.90;;;;;;5068018;28;20481;-69
2022/05/24 04:53:07;;;;;;;7.13;6.43;;;16.00;99.90;;;;;;5069025;28;20805;-64
2022/05/24 04:55:34;;;;;;;6.10;5.60;;;16.00;99.90;;;;;;5068821;28;20443;-65
2022/05/24 04:58:01;;;;;;;8.87;5.90;;;16.00;99.90;;;;;;5069237;28;20470;-65
2022/05/24 05:00:29;;;;;;;6.83;5.77;;;16.00;99.90;;;;;;5071794;28;20463;-65
2022/05/24 05:02:56;;;;;;;6.20;5.40;;;16.00;99.90;;;;;;5072730;28;20443;-65
2022/05/24 05:05:22;;;;;;;6.30;5.47;;;16.10;99.90;;;;;;5071744;28;20458;-64
2022/05/24 05:07:49;;;;;;;6.30;5.70;;;16.10;99.90;;;;;;5068449;28;21136;-65
2022/05/24 05:10:16;;;;;;;5.70;5.20;;;16.00;99.90;;;;;;5071868;28;20451;-64
2022/05/24 05:12:45;;;;;;;6.63;5.87;;;16.10;99.90;;;;;;5070702;28;20553;-65
2022/05/24 05:15:13;;;;;;;6.10;5.50;;;16.10;99.90;;;;;;5069091;28;20861;-65
2022/05/24 05:17:42;;;;;;;6.27;5.60;;;16.30;99.90;;;;;;5070557;28;20474;-64
2022/05/24 05:20:09;;;;;;;10.43;6.17;;;16.50;99.90;;;;;;5069934;28;20539;-65
2022/05/24 05:22:37;;;;;;;6.00;5.33;;;16.70;99.90;;;;;;5068093;28;20448;-66
2022/05/24 05:25:05;;;;;;;5.90;5.23;;;16.80;99.90;;;;;;5068854;28;20756;-65
2022/05/24 05:27:31;;;;;;;5.63;5.10;;;16.80;99.90;;;;;;5071179;28;20446;-65
2022/05/24 05:32:45;;;;;;;5.40;4.77;;;16.90;99.90;;;;;;5071406;28;20423;-65
2022/05/24 05:35:12;;;;;;;6.70;6.00;;;17.10;99.90;;;;;;5072351;28;20458;-65
2022/05/24 05:37:39;;;;;;;6.60;5.00;;;17.10;99.90;;;;;;5070978;28;20493;-65
2022/05/24 05:40:07;;;;;;;8.20;5.20;;;17.00;99.90;;;;;;5071738;28;20463;-65
2022/05/24 05:42:35;;;;;;;5.80;5.30;;;17.20;99.90;;;;;;5072041;28;20481;-65
2022/05/24 05:45:03;;;;;;;5.90;5.30;;;17.40;99.90;;;;;;5072345;28;20555;-65
2022/05/24 05:47:30;;;;;;;7.07;5.50;;;17.60;99.90;;;;;;5072112;28;20834;-65
2022/05/24 05:49:58;;;;;;;5.23;4.73;;;17.60;99.90;;;;;;5070970;28;20573;-64
2022/05/24 05:52:25;;;;;;;5.20;4.70;;;17.70;99.90;;;;;;5072235;28;20450;-65
2022/05/24 05:54:52;;;;;;;5.13;4.60;;;17.80;99.90;;;;;;5072303;28;20450;-65
2022/05/24 05:57:19;;;;;;;7.67;3.70;;;17.90;99.90;;;;;;5072067;28;20479;-65
2022/05/24 05:59:45;;;;;;;5.93;3.30;;;17.90;99.90;;;;;;5071618;28;20550;-65
2022/05/24 06:02:12;;;;;;;6.60;3.37;;;17.90;99.90;;;;;;5072032;28;20459;-65
2022/05/24 06:04:39;;;;;;;5.10;3.10;;;17.80;99.90;;;;;;5072027;28;20831;-65
2022/05/24 06:07:07;;;;;;;3.20;2.70;;;17.70;99.90;;;;;;5071823;28;20533;-65
2022/05/24 06:09:35;;;;;;;3.00;2.67;;;17.50;99.90;;;;;;5071611;28;21044;-65
2022/05/24 06:12:02;;;;;;;4.07;2.20;;;17.60;99.90;;;;;;5070825;28;20498;-65
2022/05/24 06:14:30;;;;;;;3.37;2.37;;;17.60;99.90;;;;;;5071877;28;20478;-65
2022/05/24 06:16:56;;;;;;;3.57;2.30;;;17.70;99.90;;;;;;5071709;28;20912;-64
2022/05/24 06:19:23;;;;;;;3.90;1.83;;;17.90;99.90;;;;;;5068757;28;20483;-64
2022/05/24 06:21:50;;;;;;;2.70;1.87;;;18.20;99.90;;;;;;5065837;28;20439;-65
2022/05/24 06:24:18;;;;;;;3.93;2.20;;;18.50;99.90;;;;;;5071289;28;20450;-65
2022/05/24 06:26:45;;;;;;;5.57;2.40;;;18.60;99.90;;;;;;5071646;28;20446;-65
2022/05/24 06:29:12;;;;;;;3.33;1.60;;;18.50;99.90;;;;;;5071694;28;20884;-64
2022/05/24 06:31:42;;;;;;;2.73;1.90;;;18.60;99.90;;;;;;5072678;28;20530;-65
2022/05/24 06:34:08;;;;;;;4.10;1.73;;;18.50;99.90;;;;;;5071249;28;20979;-64
2022/05/24 06:36:35;;;;;;;3.00;2.13;;;18.70;99.90;;;;;;5070885;28;20455;-65
2022/05/24 06:39:02;;;;;;;7.43;2.03;;;18.60;99.90;;;;;;5070912;28;20925;-65
2022/05/24 06:41:30;;;;;;;4.43;1.60;;;18.50;99.90;;;;;;5068767;28;20458;-64
2022/05/24 06:43:57;;;;;;;4.80;2.00;;;18.50;99.90;;;;;;5067809;28;20447;-64
2022/05/24 06:46:24;;;;;;;3.77;1.87;;;18.40;99.90;;;;;;5062537;28;20451;-66
2022/05/24 06:48:51;;;;;;;3.27;2.10;;;18.20;99.90;;;;;;5070748;28;20812;-65
2022/05/24 06:51:20;;;;;;;3.33;2.00;;;18.00;99.90;;;;;;5070454;28;20480;-64
2022/05/24 06:53:48;;;;;;;8.60;2.50;;;18.00;99.90;;;;;;5070739;28;20498;-64
2022/05/24 06:56:17;;;;;;;3.70;2.00;;;17.90;99.90;;;;;;5071324;28;20467;-65
2022/05/24 06:58:45;;;;;;;3.30;2.13;;;17.80;99.90;;;;;;5071037;28;20510;-65
2022/05/24 07:03:58;;;;;;;3.50;2.43;;;17.60;99.90;;;;;;5071588;28;20933;-65
2022/05/24 07:06:25;;;;;;;3.63;1.57;;;17.50;99.90;;;;;;5070904;28;20481;-65
2022/05/24 07:08:52;;;;;;;4.10;1.27;;;17.30;99.90;;;;;;5070521;28;20468;-64
2022/05/24 07:11:21;;;;;;;4.00;1.27;;;15.90;99.90;;;;;;5069997;28;20463;-65
2022/05/24 07:13:50;;;;;;;3.47;1.23;;;14.30;99.90;;;;;;5066520;28;20461;-66
2022/05/24 07:16:16;;;;;;;2.00;1.00;;;13.60;99.90;;;;;;5070502;28;20443;-65
2022/05/24 07:18:43;;;;;;;2.93;1.27;;;13.30;99.90;;;;;;5070482;28;20481;-66
2022/05/24 07:21:11;;;;;;;3.20;1.13;;;13.10;99.90;;;;;;5069995;28;20435;-66
2022/05/24 07:23:38;;;;;;;1.87;0.93;;;13.00;99.90;;;;;;5070206;28;20876;-65
2022/05/24 07:26:12;;;;;;;3.20;1.20;;;13.10;99.90;;;;;;5070769;28;20451;-66
2022/05/24 07:28:39;;;;;;;4.57;1.30;;;13.10;99.90;;;;;;5070741;28;20889;-65
2022/05/24 07:31:07;;;;;;;4.50;1.53;;;13.10;99.90;;;;;;5068714;28;20455;-65
2022/05/24 07:33:34;;;;;;;3.03;1.00;;;13.20;99.90;;;;;;5070228;28;20887;-65
2022/05/24 07:36:01;;;;;;;4.27;1.33;;;13.20;99.90;;;;;;5070416;28;20805;-65
2022/05/24 07:38:28;;;;;;;5.83;1.33;;;13.30;99.90;;;;;;5070060;28;21161;-66
2022/05/24 07:46:26;;;;;;;2.93;1.10;;;13.40;99.90;;;;;;5049986;28;20789;-65
2022/05/24 07:48:54;;;;;;;2.90;1.00;;;13.50;99.90;;;;;;5051997;28;20507;-65
2022/05/24 07:51:21;;;;;;;3.40;1.10;;;13.60;99.90;;;;;;5068908;28;20451;-65
2022/05/24 07:53:47;;;;;;;3.77;1.17;;;13.70;99.90;;;;;;5069729;28;20960;-65
2022/05/24 07:56:15;;;;;;;2.90;1.10;;;13.90;99.90;;;;;;5069985;28;20447;-65
2022/05/24 07:58:43;;;;;;;5.20;1.33;;;14.00;99.90;;;;;;5069494;28;20571;-65
2022/05/24 08:01:10;;;;;;;2.95;0.90;;;14.20;99.90;;;;;;5069019;28;20387;-65
2022/05/24 08:03:39;;;;;;;3.50;1.23;;;14.40;99.90;;;;;;5069779;28;20201;-66
2022/05/24 08:06:06;;;;;;;2.33;0.97;;;14.60;99.90;;;;;;5069821;28;20496;-65
2022/05/24 08:08:33;;;;;;;2.57;1.10;;;14.80;99.90;;;;;;5069733;28;20447;-66
2022/05/24 08:11:00;;;;;;;1.97;0.80;;;15.00;99.90;;;;;;5067755;28;20475;-65
2022/05/24 08:13:27;;;;;;;3.07;1.13;;;15.20;99.90;;;;;;5071255;28;20441;-65
2022/05/24 08:15:56;;;;;;;2.17;1.00;;;15.60;99.90;;;;;;5069617;28;20492;-65
2022/05/24 08:18:24;;;;;;;2.97;0.90;;;15.90;99.90;;;;;;5049580;28;20883;-65
2022/05/24 08:20:53;;;;;;;3.07;0.80;;;16.00;99.90;;;;;;5049280;28;20532;-65
2022/05/24 08:23:21;;;;;;;2.77;0.80;;;16.20;99.90;;;;;;5049753;28;20436;-66
2022/05/24 08:25:48;;;;;;;2.13;0.80;;;16.10;99.90;;;;;;5049942;28;20455;-65
2022/05/24 08:28:15;;;;;;;2.33;0.80;;;16.10;99.90;;;;;;5049573;28;20451;-65
2022/05/24 08:30:43;;;;;;;1.70;0.97;;;16.00;99.90;;;;;;5048676;28;20470;-65
2022/05/24 08:33:12;;;;;;;2.63;0.90;;;16.00;99.90;;;;;;5065873;28;20473;-65
2022/05/24 08:35:40;;;;;;;2.20;1.10;;;16.10;99.90;;;;;;5073081;28;20546;-65
2022/05/24 08:38:08;;;;;;;2.17;0.80;;;16.20;99.90;;;;;;5073441;28;21008;-66
2022/05/24 08:40:37;;;;;;;2.47;0.80;;;16.30;99.90;;;;;;5073125;28;20477;-65
2022/05/24 08:43:41;;;;;;;2.13;0.90;;;16.20;99.90;;;;;;5073868;28;20443;-65
2022/05/24 08:49:03;;;;;;;1.70;0.67;;;16.00;99.90;;;;;;5053467;28;20801;-64
2022/05/24 08:51:36;;;;;;;3.37;0.80;;;16.10;99.90;;;;;;5052759;28;20703;-65
2022/05/24 08:54:10;;;;;;;3.53;1.10;;;16.30;99.90;;;;;;5053358;28;20446;-65
2022/05/24 08:56:43;;;;;;;2.70;0.97;;;16.60;99.90;;;;;;5053397;28;20442;-65
2022/05/24 08:59:20;;;;;;;2.50;0.80;;;16.80;99.90;;;;;;5056013;28;20526;-66
2022/05/24 09:01:47;;;;;;;3.20;0.60;;;16.90;99.90;;;;;;5071735;28;20505;-66
2022/05/24 09:04:14;;;;;;;1.83;0.70;;;17.00;99.90;;;;;;5072477;28;20446;-66
2022/05/24 09:06:45;;;;;;;2.33;0.70;;;17.00;99.90;;;;;;5072413;28;20447;-66
2022/05/24 09:09:33;;;;;;;1.60;0.70;;;17.10;99.90;;;;;;5072676;28;20570;-65
2022/05/24 09:12:10;;;;;;;2.83;0.70;;;17.20;99.90;;;;;;5071898;28;20451;-65
2022/05/24 09:14:48;;;;;;;1.53;0.60;;;17.50;99.90;;;;;;5072187;28;20438;-65
2022/05/24 09:17:28;;;;;;;2.27;0.77;;;17.40;99.90;;;;;;5072557;28;20522;-65
2022/05/24 09:19:55;;;;;;;3.47;0.70;;;17.50;99.90;;;;;;5072160;28;20567;-66
2022/05/24 09:22:22;;;;;;;1.80;0.70;;;17.60;99.90;;;;;;5072345;28;20443;-65
2022/05/24 09:24:56;;;;;;;3.10;0.70;;;18.00;99.90;;;;;;5072124;28;20812;-66
2022/05/24 09:27:25;;;;;;;1.80;0.60;;;18.20;99.90;;;;;;5072390;28;20534;-65
2022/05/24 09:29:56;;;;;;;1.97;0.60;;;18.30;99.90;;;;;;5071863;28;20500;-65
2022/05/24 09:32:28;;;;;;;2.23;0.70;;;18.20;99.90;;;;;;5071969;28;20458;-66
2022/05/24 09:35:07;;;;;;;2.97;0.90;;;18.30;99.90;;;;;;5071795;28;20450;-67
2022/05/24 09:37:34;;;;;;;2.10;0.60;;;18.20;99.90;;;;;;5072173;28;20471;-66
2022/05/24 09:40:06;;;;;;;1.80;0.70;;;18.10;99.90;;;;;;5071588;28;20573;-66
2022/05/24 09:42:36;;;;;;;2.00;0.80;;;18.10;99.90;;;;;;5072205;28;20529;-65
2022/05/24 09:45:09;;;;;;;1.83;0.70;;;18.00;99.90;;;;;;5071932;28;20459;-66
2022/05/24 09:47:51;;;;;;;2.73;0.70;;;17.90;99.90;;;;;;5072015;28;20447;-66
2022/05/24 09:50:25;;;;;;;2.17;0.70;;;17.70;99.90;;;;;;5071748;28;20549;-66
2022/05/24 09:53:15;;;;;;;1.70;0.70;;;17.50;99.90;;;;;;5071690;28;20549;-66
2022/05/24 09:55:46;;;;;;;2.40;1.00;;;17.30;99.90;;;;;;5071495;28;20447;-66
2022/05/24 09:58:20;;;;;;;1.67;0.70;;;17.70;99.90;;;;;;5071542;28;20608;-66
2022/05/24 10:00:52;;;;;;;1.60;0.67;;;18.00;99.90;;;;;;5071250;28;20895;-65
2022/05/24 10:03:23;;;;;;;2.53;1.10;;;18.50;99.90;;;;;;5071786;28;20474;-66
2022/05/24 10:06:07;;;;;;;1.90;0.83;;;19.40;99.90;;;;;;5071774;28;20469;-66
2022/05/24 10:08:41;;;;;;;1.80;0.60;;;20.40;99.90;;;;;;5071418;28;20469;-66
2022/05/24 10:11:25;;;;;;;2.53;0.80;;;20.40;99.90;;;;;;5071058;28;20448;-65
2022/05/24 10:14:10;;;;;;;2.50;0.77;;;20.60;99.90;;;;;;5071263;28;20827;-65
2022/05/24 10:16:44;;;;;;;1.90;0.70;;;20.30;99.90;;;;;;5070596;28;20461;-65
2022/05/24 10:19:30;;;;;;;3.00;1.07;;;20.10;99.90;;;;;;5070700;28;20486;-65
2022/05/24 10:22:04;;;;;;;1.77;0.70;;;19.60;99.90;;;;;;5067837;28;20470;-65
2022/05/24 10:24:44;;;;;;;4.23;0.90;;;19.10;99.90;;;;;;5071031;28;20440;-65
2022/05/24 10:27:23;;;;;;;3.00;0.93;;;18.80;99.90;;;;;;5071133;28;20436;-65
2022/05/24 10:29:56;;;;;;;2.73;0.80;;;18.60;99.90;;;;;;5070774;28;20470;-65
2022/05/24 10:38:32;;;;;;;4.13;0.90;;;20.40;99.90;;;;;;5070881;28;20443;-65
2022/05/24 10:41:07;;;;;;;1.80;0.83;;;19.70;99.90;;;;;;5068519;28;20903;-65
2022/05/24 10:43:54;;;;;;;2.17;0.90;;;20.00;99.90;;;;;;5072489;28;20910;-65
2022/05/24 10:46:28;;;;;;;2.80;0.80;;;20.20;99.90;;;;;;5066820;28;20804;-65
2022/05/24 10:49:02;;;;;;;1.80;0.80;;;20.90;99.90;;;;;;5062595;28;20956;-66
2022/05/24 10:51:35;;;;;;;1.80;0.70;;;21.20;98.90;;;;;;5063728;28;20838;-65
2022/05/24 10:54:09;;;;;;;2.23;0.90;;;21.30;97.70;;;;;;5068211;28;20512;-66
2022/05/24 10:56:43;;;;;;;2.10;0.70;;;21.40;98.00;;;;;;5068062;28;20447;-66
2022/05/24 10:59:21;;;;;;;1.80;0.67;;;21.40;98.50;;;;;;5069138;28;20858;-65
2022/05/24 11:01:53;;;;;;;2.00;0.70;;;21.40;97.00;;;;;;5060907;28;20451;-65
2022/05/24 11:04:26;;;;;;;2.67;0.70;;;21.30;98.20;;;;;;5070352;28;20505;-66
2022/05/24 11:07:00;;;;;;;2.10;0.80;;;21.00;97.50;;;;;;5055875;28;20443;-66
2022/05/24 11:09:30;;;;;;;2.20;1.00;;;20.80;98.10;;;;;;5070350;28;20951;-66
2022/05/24 11:12:01;;;;;;;1.97;1.03;;;21.10;98.10;;;;;;5067578;28;20455;-65
2022/05/24 11:14:37;;;;;;;1.90;0.80;;;21.30;96.40;;;;;;5067578;28;20462;-65
2022/05/24 11:17:05;;;;;;;4.70;1.17;;;20.80;97.70;;;;;;5068716;28;20531;-66
2022/05/24 11:19:36;;;;;;;1.70;0.70;;;21.00;98.30;;;;;;5066920;28;20490;-66
2022/05/24 11:22:10;;;;;;;2.30;1.00;;;21.40;98.00;;;;;;5067659;28;20551;-66
2022/05/24 11:24:43;;;;;;;1.70;0.67;;;21.70;96.70;;;;;;5067133;28;20534;-66
2022/05/24 11:27:14;;;;;;;2.63;0.80;;;21.70;95.90;;;;;;5061897;28;20458;-67
2022/05/24 11:29:48;;;;;;;5.20;1.00;;;22.40;97.80;;;;;;5065168;28;21011;-66
2022/05/24 11:32:29;;;;;;;2.10;0.70;;;22.90;94.60;;;;;;5070171;28;20447;-66
2022/05/24 11:35:00;;;;;;;2.07;0.80;;;22.90;94.00;;;;;;5068322;28;20457;-66
2022/05/24 11:37:30;;;;;;;3.43;0.80;;;22.60;93.30;;;;;;5068293;28;20446;-66
2022/05/24 11:39:57;;;;;;;2.70;0.90;;;22.60;93.70;;;;;;5069578;28;20486;-65
2022/05/24 11:42:43;;;;;;;2.77;0.90;;;21.70;94.00;;;;;;5069494;28;20967;-65
2022/05/24 11:45:55;;;;;;;2.03;1.00;;;21.20;94.60;;;;;;5063919;28;20529;-65
2022/05/24 11:48:23;;;;;;;2.73;0.90;;;21.10;95.50;;;;;;4985078;28;20446;-66
2022/05/24 11:50:51;;;;;;;3.60;0.90;;;21.00;96.40;;;;;;5058678;28;20851;-64
2022/05/24 11:53:40;;;;;;;2.97;0.80;;;21.20;95.30;;;;;;5068812;28;20478;-66
2022/05/24 11:56:17;;;;;;;2.47;1.00;;;21.20;94.90;;;;;;5068875;28;21124;-66
2022/05/24 11:58:55;;;;;;;1.80;0.80;;;21.50;96.50;;;;;;5069363;28;20827;-66
2022/05/24 12:01:48;;;;;;;2.57;0.90;;;21.90;95.30;;;;;;5064822;28;20451;-65
2022/05/24 12:10:46;;;;;;;1.77;0.80;;;21.50;92.60;;;;;;5058419;28;20769;-66
2022/05/24 12:13:51;;;;;;;2.27;0.93;;;21.10;94.40;;;;;;5072014;28;20474;-66
2022/05/24 12:16:41;;;;;;;1.90;0.70;;;21.40;94.00;;;;;;5072382;28;20565;-66
2022/05/24 12:19:11;;;;;;;2.67;0.90;;;21.40;92.90;;;;;;5072001;28;20857;-67
2022/05/24 12:21:58;;;;;;;2.27;0.90;;;21.70;94.20;;;;;;5069261;28;20449;-66
2022/05/24 12:24:57;;;;;;;2.10;0.90;;;22.20;92.60;;;;;;5072231;28;20442;-66
2022/05/24 12:27:47;;;;;;;2.50;1.00;;;22.00;92.00;;;;;;5068195;28;20447;-66
2022/05/24 12:30:27;;;;;;;1.73;0.63;;;21.80;93.10;;;;;;5072077;28;20922;-66
2022/05/24 12:32:56;;;;;;;1.97;0.80;;;21.90;93.10;;;;;;5072013;28;20450;-65
2022/05/24 12:35:25;;;;;;;2.47;1.00;;;22.30;93.00;;;;;;5070411;28;20915;-66
2022/05/24 12:37:55;;;;;;;1.87;0.77;;;22.90;91.50;;;;;;5072361;28;20826;-65
2022/05/24 12:40:24;;;;;;;2.00;0.80;;;22.90;91.80;;;;;;5072192;28;20483;-65
2022/05/24 12:42:53;;;;;;;3.83;0.90;;;22.80;92.30;;;;;;5072830;28;20996;-66
2022/05/24 12:45:27;;;;;;;3.20;0.90;;;22.90;91.50;;;;;;5068795;28;20454;-66
2022/05/24 12:47:57;;;;;;;2.10;0.80;;;23.20;91.60;;;;;;5069659;28;20435;-66
2022/05/24 12:50:30;;;;;;;3.27;0.70;;;22.80;89.40;;;;;;5064456;28;20470;-65
2022/05/24 12:53:03;;;;;;;3.37;1.00;;;22.00;90.10;;;;;;5071015;28;20471;-66
2022/05/24 12:58:27;;;;;;;2.87;0.90;;;21.10;93.10;;;;;;5068682;28;20482;-66
2022/05/24 13:01:13;;;;;;;1.90;0.80;;;20.90;94.00;;;;;;5064604;28;20489;-66
2022/05/24 13:03:45;;;;;;;2.53;0.70;;;20.90;93.90;;;;;;5069552;28;20439;-66
2022/05/24 13:06:21;;;;;;;1.60;0.60;;;20.80;94.00;;;;;;5070948;28;21107;-67
2022/05/24 13:08:48;;;;;;;3.57;1.07;;;20.60;92.90;;;;;;5070616;28;20457;-64
2022/05/24 13:11:15;;;;;;;2.47;0.90;;;20.50;95.30;;;;;;5070246;28;20451;-65
2022/05/24 13:13:43;;;;;;;2.27;0.80;;;20.20;94.80;;;;;;5054295;28;20453;-66
2022/05/24 13:16:10;;;;;;;2.10;0.90;;;19.80;93.90;;;;;;5070113;28;21025;-66
2022/05/24 13:18:50;;;;;;;3.63;1.10;;;19.60;94.60;;;;;;5070852;28;20458;-65
2022/05/24 13:21:23;;;;;;;4.17;1.33;;;19.40;95.50;;;;;;5069131;28;20443;-66
2022/05/24 13:24:08;;;;;;;2.00;0.80;;;19.30;95.30;;;;;;5065487;28;20448;-66
2022/05/24 13:26:35;;;;;;;3.20;1.17;;;19.40;95.20;;;;;;5066054;28;20458;-66
2022/05/24 13:29:24;;;;;;;1.90;1.03;;;19.50;95.30;;;;;;5066593;28;20489;-66
2022/05/24 13:34:38;;;;;;;3.73;0.83;;;20.60;95.60;;;;;;5066890;28;20442;-65
2022/05/24 13:37:08;;;;;;;1.93;0.90;;;21.90;94.20;;;;;;5067844;28;20538;-66
2022/05/24 13:39:53;;;;;;;1.93;0.70;;;22.40;93.20;;;;;;5068236;28;21089;-66
2022/05/24 13:42:25;;;;;;;2.47;0.80;;;22.50;92.70;;;;;;5067463;28;20508;-66
2022/05/24 13:45:18;;;;;;;3.70;1.00;;;23.60;91.40;;;;;;5071000;28;20804;-66
2022/05/24 13:47:47;;;;;;;2.33;0.70;;;24.40;89.00;;;;;;5049856;28;20529;-65
2022/05/24 13:50:27;;;;;;;2.73;0.90;;;24.70;87.60;;;;;;5069939;28;21121;-66